createdAt,value
2019-03-17T00:00:23.151Z,34.78
2019-03-17T00:01:23.139Z,35.69
2019-03-17T00:02:23.189Z,36.01
2019-03-17T00:03:23.125Z,34.79
2019-03-17T00:04:31.370Z,35.71
2019-03-17T00:05:47.909Z,35.00
2019-03-17T00:06:47.900Z,35.10
2019-03-17T00:07:48.042Z,35.01
2019-03-17T00:08:47.883Z,35.01
2019-03-17T00:09:47.875Z,35.01
2019-03-17T00:10:47.864Z,36.03
2019-03-17T00:11:47.852Z,35.42
2019-03-17T00:12:47.842Z,35.22
2019-03-17T00:13:47.879Z,36.03
2019-03-17T00:14:47.819Z,35.51
2019-03-17T00:15:47.809Z,35.40
2019-03-17T00:16:47.799Z,34.88
2019-03-17T00:17:47.790Z,34.98
2019-03-17T00:18:47.785Z,34.86
2019-03-17T00:19:47.869Z,34.96
2019-03-17T00:20:47.762Z,35.08
2019-03-17T00:21:47.743Z,34.88
2019-03-17T00:22:47.744Z,35.18
2019-03-17T00:23:47.725Z,35.98
2019-03-17T00:24:47.722Z,35.78
2019-03-17T00:25:47.856Z,36.30
2019-03-17T00:26:47.693Z,36.10
2019-03-17T00:27:47.683Z,36.00
2019-03-17T00:28:47.672Z,36.51
2019-03-17T00:29:47.662Z,35.37
2019-03-17T00:30:47.652Z,34.86
2019-03-17T00:31:47.700Z,34.46
2019-03-17T00:32:47.635Z,34.35
2019-03-17T00:33:47.621Z,34.35
2019-03-17T00:34:47.611Z,35.26
2019-03-17T00:35:47.605Z,33.10
2019-03-17T00:36:47.590Z,31.77
2019-03-17T00:37:47.679Z,31.67
2019-03-17T00:38:47.574Z,31.16
2019-03-17T00:39:48.948Z,32.06
2019-03-17T00:40:47.545Z,30.75
2019-03-17T00:41:47.535Z,31.36
2019-03-17T00:42:47.532Z,30.55
2019-03-17T00:43:47.775Z,30.85
2019-03-17T00:44:47.503Z,31.36
2019-03-17T00:45:47.494Z,32.48
2019-03-17T00:46:47.480Z,30.96
2019-03-17T00:47:47.473Z,31.86
2019-03-17T00:48:47.463Z,30.54
2019-03-17T00:49:47.550Z,30.63
2019-03-17T00:50:48.977Z,31.06
2019-03-17T00:51:47.434Z,30.54
2019-03-17T00:52:47.420Z,30.55
2019-03-17T00:53:47.407Z,32.56
2019-03-17T00:54:47.407Z,30.55
2019-03-17T00:55:47.443Z,31.56
2019-03-17T00:56:47.392Z,31.95
2019-03-17T00:57:47.373Z,34.60
2019-03-17T00:58:47.358Z,34.80
2019-03-17T00:59:47.346Z,33.70
2019-03-17T01:00:47.338Z,33.71
2019-03-17T01:01:47.477Z,32.98
2019-03-17T01:02:47.313Z,32.89
2019-03-17T01:03:47.304Z,31.78
2019-03-17T01:04:55.744Z,32.68
2019-03-17T01:06:12.097Z,33.01
2019-03-17T01:07:12.192Z,31.46
2019-03-17T01:08:12.074Z,30.42
2019-03-17T01:09:12.063Z,30.90
2019-03-17T01:10:12.053Z,29.77
2019-03-17T01:11:12.039Z,29.96
2019-03-17T01:12:12.030Z,29.55
2019-03-17T01:13:12.069Z,29.55
2019-03-17T01:14:12.006Z,28.94
2019-03-17T01:15:11.999Z,28.54
2019-03-17T01:16:11.989Z,28.64
2019-03-17T01:17:11.983Z,28.55
2019-03-17T01:18:11.967Z,27.54
2019-03-17T01:19:12.111Z,28.49
2019-03-17T01:20:11.945Z,28.40
2019-03-17T01:21:11.939Z,29.64
2019-03-17T01:22:11.924Z,30.06
2019-03-17T01:23:11.918Z,30.68
2019-03-17T01:24:11.903Z,31.39
2019-03-17T01:25:11.943Z,32.61
2019-03-17T01:26:11.878Z,31.90
2019-03-17T01:27:11.869Z,31.29
2019-03-17T01:28:11.860Z,31.79
2019-03-17T01:29:11.849Z,31.90
2019-03-17T01:30:11.836Z,32.40
2019-03-17T01:31:11.929Z,32.81
2019-03-17T01:32:11.819Z,33.00
2019-03-17T01:33:11.810Z,32.20
2019-03-17T01:34:11.794Z,31.37
2019-03-17T01:35:11.783Z,31.46
2019-03-17T01:36:11.775Z,30.54
2019-03-17T01:37:12.019Z,30.62
2019-03-17T01:38:11.753Z,29.61
2019-03-17T01:39:11.740Z,30.22
2019-03-17T01:40:11.731Z,29.71
2019-03-17T01:41:11.717Z,29.91
2019-03-17T01:42:11.708Z,31.25
2019-03-17T01:43:11.753Z,30.54
2019-03-17T01:44:11.688Z,31.65
2019-03-17T01:45:11.684Z,32.27
2019-03-17T01:46:11.666Z,31.78
2019-03-17T01:47:11.660Z,32.39
2019-03-17T01:48:11.650Z,32.81
2019-03-17T01:49:11.689Z,32.72
2019-03-17T01:50:11.626Z,33.23
2019-03-17T01:51:11.614Z,33.14
2019-03-17T01:52:11.606Z,33.34
2019-03-17T01:53:11.589Z,32.84
2019-03-17T01:54:11.581Z,32.82
2019-03-17T01:55:11.721Z,32.42
2019-03-17T01:56:11.556Z,33.12
2019-03-17T01:57:11.548Z,31.71
2019-03-17T01:58:11.541Z,31.30
2019-03-17T01:59:11.526Z,30.61
2019-03-17T02:00:11.517Z,30.62
2019-03-17T02:01:12.008Z,31.12
2019-03-17T02:02:11.494Z,32.75
2019-03-17T02:03:11.484Z,32.64
2019-03-17T02:04:11.476Z,32.94
2019-03-17T02:05:21.544Z,33.16
2019-03-17T02:06:36.316Z,33.78
2019-03-17T02:07:36.304Z,33.68
2019-03-17T02:08:36.296Z,33.17
2019-03-17T02:09:36.280Z,33.88
2019-03-17T02:10:36.283Z,33.68
2019-03-17T02:11:36.715Z,33.88
2019-03-17T02:12:36.255Z,34.29
2019-03-17T02:13:36.244Z,34.39
2019-03-17T02:14:36.226Z,32.97
2019-03-17T02:15:36.230Z,32.75
2019-03-17T02:16:36.215Z,33.28
2019-03-17T02:17:36.302Z,32.16
2019-03-17T02:18:36.188Z,33.99
2019-03-17T02:19:36.178Z,33.68
2019-03-17T02:20:36.169Z,33.48
2019-03-17T02:21:36.157Z,34.29
2019-03-17T02:22:36.149Z,34.69
2019-03-17T02:23:36.190Z,34.39
2019-03-17T02:24:36.124Z,34.90
2019-03-17T02:25:36.113Z,33.48
2019-03-17T02:26:36.106Z,32.56
2019-03-17T02:27:36.094Z,32.87
2019-03-17T02:28:36.083Z,33.58
2019-03-17T02:29:36.323Z,34.10
2019-03-17T02:30:36.062Z,34.21
2019-03-17T02:31:36.052Z,34.32
2019-03-17T02:32:36.041Z,33.49
2019-03-17T02:33:36.030Z,34.51
2019-03-17T02:34:36.019Z,34.10
2019-03-17T02:35:39.242Z,34.61
2019-03-17T02:36:36.001Z,34.10
2019-03-17T02:37:35.985Z,33.90
2019-03-17T02:38:36.003Z,33.31
2019-03-17T02:39:36.052Z,33.41
2019-03-17T02:40:35.961Z,33.71
2019-03-17T02:41:36.042Z,33.31
2019-03-17T02:42:35.947Z,34.32
2019-03-17T02:43:35.921Z,34.93
2019-03-17T02:44:35.910Z,33.91
2019-03-17T02:45:35.907Z,33.31
2019-03-17T02:46:35.999Z,33.91
2019-03-17T02:47:35.880Z,33.61
2019-03-17T02:48:35.933Z,33.20
2019-03-17T02:49:35.857Z,33.00
2019-03-17T02:50:35.845Z,32.70
2019-03-17T02:51:35.839Z,33.81
2019-03-17T02:52:35.873Z,33.71
2019-03-17T02:53:35.814Z,34.63
2019-03-17T02:54:35.806Z,34.42
2019-03-17T02:55:35.800Z,33.31
2019-03-17T02:56:35.783Z,34.52
2019-03-17T02:57:36.023Z,34.93
2019-03-17T02:58:35.762Z,32.29
2019-03-17T02:59:35.749Z,33.20
2019-03-17T03:00:35.742Z,32.98
2019-03-17T03:01:35.726Z,32.85
2019-03-17T03:02:35.724Z,30.49
2019-03-17T03:03:35.756Z,29.87
2019-03-17T03:04:35.710Z,30.17
2019-03-17T03:05:35.687Z,31.90
2019-03-17T03:06:35.677Z,32.82
2019-03-17T03:07:35.666Z,34.66
2019-03-17T03:08:35.657Z,35.47
2019-03-17T03:09:35.694Z,34.77
2019-03-17T03:10:35.643Z,34.05
2019-03-17T03:11:35.633Z,30.70
2019-03-17T03:12:35.673Z,30.09
2019-03-17T03:13:35.614Z,29.78
2019-03-17T03:14:35.601Z,29.97
2019-03-17T03:15:35.788Z,30.48
2019-03-17T03:16:35.571Z,31.57
2019-03-17T03:17:35.561Z,30.87
2019-03-17T03:18:35.553Z,29.74
2019-03-17T03:19:35.539Z,30.65
2019-03-17T03:20:35.530Z,30.95
2019-03-17T03:21:35.570Z,30.54
2019-03-17T03:22:35.512Z,31.62
2019-03-17T03:23:35.512Z,30.58
2019-03-17T03:24:35.489Z,29.94
2019-03-17T03:25:35.503Z,29.63
2019-03-17T03:26:35.478Z,28.61
2019-03-17T03:27:35.557Z,28.50
2019-03-17T03:28:35.454Z,28.00
2019-03-17T03:29:35.434Z,27.88
2019-03-17T03:30:35.456Z,27.46
2019-03-17T03:31:35.412Z,26.14
2019-03-17T03:32:35.403Z,24.93
2019-03-17T03:33:35.545Z,26.24
2019-03-17T03:34:35.384Z,26.83
2019-03-17T03:35:35.372Z,28.45
2019-03-17T03:36:35.357Z,28.16
2019-03-17T03:37:35.347Z,28.57
2019-03-17T03:38:35.335Z,27.65
2019-03-17T03:39:35.383Z,27.95
2019-03-17T03:40:35.317Z,28.03
2019-03-17T03:41:35.302Z,27.22
2019-03-17T03:42:35.294Z,26.61
2019-03-17T03:43:35.284Z,28.41
2019-03-17T03:44:35.349Z,29.63
2019-03-17T03:45:35.366Z,28.44
2019-03-17T03:46:35.249Z,28.15
2019-03-17T03:47:35.242Z,27.75
2019-03-17T03:48:35.232Z,28.05
2019-03-17T03:49:35.221Z,27.86
2019-03-17T03:50:35.214Z,28.38
2019-03-17T03:51:35.350Z,27.97
2019-03-17T03:52:35.187Z,28.78
2019-03-17T03:53:35.174Z,27.77
2019-03-17T03:54:35.171Z,28.68
2019-03-17T03:55:35.159Z,28.98
2019-03-17T03:56:35.156Z,28.80
2019-03-17T03:57:35.180Z,29.80
2019-03-17T03:58:35.123Z,28.57
2019-03-17T03:59:35.114Z,29.58
2019-03-17T04:00:35.102Z,28.60
2019-03-17T04:01:35.091Z,29.60
2019-03-17T04:02:35.086Z,29.21
2019-03-17T04:03:35.137Z,29.62
2019-03-17T04:04:35.059Z,29.71
2019-03-17T04:05:35.049Z,30.02
2019-03-17T04:06:35.061Z,30.84
2019-03-17T04:07:35.030Z,29.83
2019-03-17T04:08:35.017Z,30.74
2019-03-17T04:09:35.405Z,30.13
2019-03-17T04:10:34.995Z,30.34
2019-03-17T04:11:34.993Z,30.74
2019-03-17T04:12:34.987Z,30.74
2019-03-17T04:13:34.966Z,30.82
2019-03-17T04:14:34.955Z,30.22
2019-03-17T04:15:35.041Z,30.62
2019-03-17T04:16:34.936Z,29.62
2019-03-17T04:17:34.919Z,30.42
2019-03-17T04:18:34.916Z,29.80
2019-03-17T04:19:34.905Z,29.90
2019-03-17T04:20:34.934Z,30.70
2019-03-17T04:21:34.956Z,29.57
2019-03-17T04:22:34.868Z,29.36
2019-03-17T04:23:34.854Z,28.44
2019-03-17T04:24:34.855Z,28.03
2019-03-17T04:25:34.837Z,27.62
2019-03-17T04:26:34.874Z,27.61
2019-03-17T04:27:34.814Z,27.39
2019-03-17T04:28:34.808Z,27.78
2019-03-17T04:29:34.795Z,27.37
2019-03-17T04:30:34.782Z,27.97
2019-03-17T04:31:34.922Z,27.47
2019-03-17T04:32:34.758Z,27.57
2019-03-17T04:33:34.754Z,27.77
2019-03-17T04:34:34.742Z,27.56
2019-03-17T04:35:34.741Z,27.36
2019-03-17T04:36:39.963Z,27.14
2019-03-17T04:37:35.910Z,27.93
2019-03-17T04:38:34.699Z,25.93
2019-03-17T04:39:34.687Z,26.61
2019-03-17T04:40:34.673Z,27.11
2019-03-17T04:41:34.665Z,26.51
2019-03-17T04:42:34.657Z,27.31
2019-03-17T04:43:34.692Z,27.72
2019-03-17T04:44:34.640Z,27.81
2019-03-17T04:45:34.636Z,27.72
2019-03-17T04:46:34.610Z,27.52
2019-03-17T04:47:34.600Z,26.72
2019-03-17T04:48:34.592Z,27.11
2019-03-17T04:49:34.734Z,27.22
2019-03-17T04:50:34.573Z,27.34
2019-03-17T04:51:34.566Z,27.85
2019-03-17T04:52:34.553Z,28.16
2019-03-17T04:53:34.543Z,28.57
2019-03-17T04:54:34.534Z,28.47
2019-03-17T04:55:34.573Z,29.39
2019-03-17T04:56:34.514Z,29.37
2019-03-17T04:57:34.502Z,29.49
2019-03-17T04:58:34.489Z,29.39
2019-03-17T04:59:34.484Z,29.49
2019-03-17T05:00:34.470Z,28.87
2019-03-17T05:01:34.515Z,29.57
2019-03-17T05:02:34.450Z,29.06
2019-03-17T05:03:34.439Z,30.15
2019-03-17T05:04:34.428Z,29.24
2019-03-17T05:05:34.416Z,30.46
2019-03-17T05:06:34.407Z,30.69
2019-03-17T05:07:34.544Z,30.18
2019-03-17T05:08:34.408Z,30.85
2019-03-17T05:09:34.381Z,29.43
2019-03-17T05:10:34.370Z,29.22
2019-03-17T05:11:34.355Z,29.40
2019-03-17T05:12:34.347Z,29.49
2019-03-17T05:13:34.387Z,28.39
2019-03-17T05:14:34.326Z,27.67
2019-03-17T05:15:34.320Z,27.78
2019-03-17T05:16:35.795Z,28.69
2019-03-17T05:17:34.294Z,28.49
2019-03-17T05:18:34.285Z,28.30
2019-03-17T05:19:34.327Z,29.63
2019-03-17T05:20:34.261Z,30.55
2019-03-17T05:21:34.260Z,30.65
2019-03-17T05:22:34.244Z,29.85
2019-03-17T05:23:34.235Z,30.58
2019-03-17T05:24:34.232Z,31.29
2019-03-17T05:25:34.465Z,31.91
2019-03-17T05:26:34.207Z,32.13
2019-03-17T05:27:34.193Z,32.64
2019-03-17T05:28:34.185Z,31.94
2019-03-17T05:29:34.177Z,32.64
2019-03-17T05:30:34.163Z,32.64
2019-03-17T05:31:34.206Z,31.64
2019-03-17T05:32:34.140Z,32.46
2019-03-17T05:33:34.134Z,32.46
2019-03-17T05:34:34.121Z,32.56
2019-03-17T05:35:34.110Z,32.24
2019-03-17T05:36:34.095Z,32.14
2019-03-17T05:37:34.189Z,30.32
2019-03-17T05:38:34.077Z,30.32
2019-03-17T05:39:34.068Z,29.60
2019-03-17T05:40:34.059Z,29.08
2019-03-17T05:41:34.052Z,29.57
2019-03-17T05:42:34.039Z,28.67
2019-03-17T05:43:34.278Z,28.49
2019-03-17T05:44:34.043Z,28.49
2019-03-17T05:45:34.009Z,29.70
2019-03-17T05:46:33.997Z,29.89
2019-03-17T05:47:33.987Z,30.29
2019-03-17T05:48:33.976Z,30.48
2019-03-17T05:49:34.071Z,29.18
2019-03-17T05:50:33.964Z,29.18
2019-03-17T05:51:33.945Z,29.47
2019-03-17T05:52:33.937Z,31.48
2019-03-17T05:53:33.925Z,29.18
2019-03-17T05:54:33.913Z,28.96
2019-03-17T05:55:34.011Z,35.27
2019-03-17T05:56:33.893Z,31.65
2019-03-17T05:57:33.885Z,29.74
2019-03-17T05:58:33.870Z,29.44
2019-03-17T05:59:33.860Z,29.55
2019-03-17T06:00:33.854Z,29.35
2019-03-17T06:01:33.992Z,28.43
2019-03-17T06:02:33.826Z,28.83
2019-03-17T06:03:33.822Z,29.65
2019-03-17T06:04:33.809Z,29.03
2019-03-17T06:05:33.798Z,28.74
2019-03-17T06:06:33.790Z,29.44
2019-03-17T06:07:33.878Z,29.44
2019-03-17T06:08:33.890Z,29.44
2019-03-17T06:09:33.757Z,29.44
2019-03-17T06:10:33.746Z,28.35
2019-03-17T06:11:33.730Z,29.35
2019-03-17T06:12:33.724Z,29.35
2019-03-17T06:13:33.764Z,29.74
2019-03-17T06:14:33.704Z,31.35
2019-03-17T06:15:33.692Z,29.35
2019-03-17T06:16:33.685Z,29.03
2019-03-17T06:17:33.673Z,28.94
2019-03-17T06:18:33.661Z,29.23
2019-03-17T06:19:33.806Z,28.44
2019-03-17T06:20:33.644Z,28.74
2019-03-17T06:21:33.630Z,28.85
2019-03-17T06:22:33.623Z,28.94
2019-03-17T06:23:33.614Z,28.76
2019-03-17T06:24:33.601Z,29.36
2019-03-17T06:25:33.740Z,29.35
2019-03-17T06:26:33.583Z,29.46
2019-03-17T06:27:33.572Z,29.18
2019-03-17T06:28:33.561Z,28.77
2019-03-17T06:29:33.545Z,30.38
2019-03-17T06:30:33.538Z,30.39
2019-03-17T06:31:33.579Z,29.69
2019-03-17T06:32:33.517Z,29.69
2019-03-17T06:33:33.509Z,29.49
2019-03-17T06:34:33.499Z,29.69
2019-03-17T06:35:33.484Z,29.70
2019-03-17T06:36:33.476Z,29.50
2019-03-17T06:37:33.609Z,30.40
2019-03-17T06:38:33.451Z,29.39
2019-03-17T06:39:33.441Z,30.71
2019-03-17T06:40:33.432Z,29.80
2019-03-17T06:41:33.423Z,29.70
2019-03-17T06:42:33.413Z,30.40
2019-03-17T06:43:33.450Z,31.31
2019-03-17T06:44:33.388Z,30.31
2019-03-17T06:45:33.380Z,30.31
2019-03-17T06:46:33.375Z,30.42
2019-03-17T06:47:33.359Z,30.22
2019-03-17T06:48:33.350Z,29.92
2019-03-17T06:49:33.387Z,30.42
2019-03-17T06:50:33.328Z,29.92
2019-03-17T06:51:33.311Z,29.80
2019-03-17T06:52:33.304Z,29.20
2019-03-17T06:53:33.292Z,29.90
2019-03-17T06:54:33.281Z,29.69
2019-03-17T06:55:33.330Z,29.39
2019-03-17T06:56:33.263Z,29.39
2019-03-17T06:57:33.252Z,29.79
2019-03-17T06:58:33.243Z,29.69
2019-03-17T06:59:33.229Z,29.69
2019-03-17T07:00:33.373Z,30.27
2019-03-17T07:01:33.209Z,30.27
2019-03-17T07:02:33.199Z,30.09
2019-03-17T07:03:33.190Z,30.39
2019-03-17T07:04:33.181Z,30.49
2019-03-17T07:05:33.169Z,29.79
2019-03-17T07:06:33.209Z,29.69
2019-03-17T07:07:43.355Z,30.29
2019-03-17T07:08:57.943Z,30.29
2019-03-17T07:09:57.933Z,30.49
2019-03-17T07:10:57.928Z,30.48
2019-03-17T07:11:57.964Z,29.68
2019-03-17T07:12:57.906Z,29.88
2019-03-17T07:13:57.896Z,29.79
2019-03-17T07:14:57.883Z,29.39
2019-03-17T07:15:57.877Z,30.39
2019-03-17T07:16:57.865Z,30.69
2019-03-17T07:17:58.258Z,30.39
2019-03-17T07:18:57.847Z,30.39
2019-03-17T07:19:57.838Z,29.08
2019-03-17T07:20:57.837Z,29.49
2019-03-17T07:21:57.816Z,30.09
2019-03-17T07:22:57.807Z,29.77
2019-03-17T07:23:57.848Z,29.07
2019-03-17T07:24:57.786Z,28.79
2019-03-17T07:25:57.772Z,28.69
2019-03-17T07:26:57.759Z,28.90
2019-03-17T07:27:57.796Z,28.30
2019-03-17T07:28:57.737Z,28.30
2019-03-17T07:29:57.782Z,29.80
2019-03-17T07:30:57.722Z,30.51
2019-03-17T07:31:57.712Z,30.39
2019-03-17T07:32:57.700Z,29.49
2019-03-17T07:33:57.689Z,29.68
2019-03-17T07:34:57.680Z,29.47
2019-03-17T07:35:57.821Z,29.66
2019-03-17T07:36:57.658Z,27.86
2019-03-17T07:37:57.652Z,27.66
2019-03-17T07:38:57.641Z,28.06
2019-03-17T07:39:57.626Z,28.25
2019-03-17T07:40:57.619Z,28.16
2019-03-17T07:41:57.711Z,28.36
2019-03-17T07:42:57.600Z,28.47
2019-03-17T07:43:57.588Z,26.67
2019-03-17T07:44:57.580Z,27.75
2019-03-17T07:45:57.566Z,27.67
2019-03-17T07:46:57.560Z,27.57
2019-03-17T07:47:57.598Z,27.37
2019-03-17T07:48:57.539Z,25.46
2019-03-17T07:49:57.527Z,26.97
2019-03-17T07:50:57.516Z,28.17
2019-03-17T07:51:57.535Z,27.97
2019-03-17T07:52:57.495Z,27.87
2019-03-17T07:53:57.637Z,28.25
2019-03-17T07:54:57.476Z,28.56
2019-03-17T07:55:57.463Z,28.76
2019-03-17T07:56:57.455Z,28.36
2019-03-17T07:57:57.446Z,28.16
2019-03-17T07:58:57.436Z,27.75
2019-03-17T07:59:57.528Z,29.07
2019-03-17T08:00:57.415Z,28.76
2019-03-17T08:01:57.400Z,27.57
2019-03-17T08:02:57.393Z,27.88
2019-03-17T08:03:57.386Z,29.37
2019-03-17T08:04:57.373Z,28.49
2019-03-17T08:05:57.409Z,28.28
2019-03-17T08:06:57.367Z,29.08
2019-03-17T08:08:08.803Z,28.18
2019-03-17T08:08:58.433Z,28.67
2019-03-17T08:09:57.337Z,29.18
2019-03-17T08:10:57.307Z,27.47
2019-03-17T08:11:57.403Z,28.07
2019-03-17T08:12:57.291Z,28.27
2019-03-17T08:13:57.282Z,27.96
2019-03-17T08:14:57.888Z,28.17
2019-03-17T08:15:57.265Z,29.07
2019-03-17T08:16:57.253Z,27.99
2019-03-17T08:17:57.288Z,28.18
2019-03-17T08:18:57.231Z,28.40
2019-03-17T08:19:57.220Z,28.30
2019-03-17T08:20:57.240Z,29.50
2019-03-17T08:21:57.201Z,29.40
2019-03-17T08:22:57.193Z,29.29
2019-03-17T08:23:57.227Z,27.08
2019-03-17T08:24:57.182Z,28.69
2019-03-17T08:25:57.159Z,27.58
2019-03-17T08:26:57.154Z,28.79
2019-03-17T08:27:57.139Z,27.99
2019-03-17T08:28:57.279Z,28.38
2019-03-17T08:29:57.116Z,29.07
2019-03-17T08:30:57.106Z,29.07
2019-03-17T08:31:57.098Z,27.77
2019-03-17T08:32:57.098Z,28.58
2019-03-17T08:33:57.079Z,28.18
2019-03-17T08:34:57.166Z,28.20
2019-03-17T08:35:57.056Z,29.49
2019-03-17T08:36:57.047Z,29.39
2019-03-17T08:37:57.034Z,29.37
2019-03-17T08:38:57.033Z,29.68
2019-03-17T08:39:57.015Z,29.68
2019-03-17T08:40:57.104Z,29.66
2019-03-17T08:41:56.992Z,29.26
2019-03-17T08:42:56.979Z,27.36
2019-03-17T08:43:56.969Z,28.66
2019-03-17T08:44:57.054Z,28.86
2019-03-17T08:45:56.948Z,28.46
2019-03-17T08:46:57.093Z,29.06
2019-03-17T08:47:58.567Z,29.86
2019-03-17T08:48:56.919Z,29.35
2019-03-17T08:49:56.918Z,29.35
2019-03-17T08:50:56.913Z,28.85
2019-03-17T08:51:56.895Z,26.64
2019-03-17T08:52:56.981Z,27.16
2019-03-17T08:53:56.872Z,27.75
2019-03-17T08:54:56.860Z,27.05
2019-03-17T08:55:56.847Z,27.75
2019-03-17T08:56:56.844Z,28.36
2019-03-17T08:57:56.824Z,28.86
2019-03-17T08:58:56.921Z,28.94
2019-03-17T08:59:56.810Z,29.44
2019-03-17T09:00:56.796Z,29.44
2019-03-17T09:01:56.790Z,29.53
2019-03-17T09:02:56.780Z,27.63
2019-03-17T09:03:56.766Z,27.33
2019-03-17T09:04:56.913Z,28.35
2019-03-17T09:05:56.755Z,27.85
2019-03-17T09:06:56.732Z,28.85
2019-03-17T09:07:56.729Z,27.44
2019-03-17T09:08:56.723Z,27.85
2019-03-17T09:09:56.704Z,28.14
2019-03-17T09:10:56.748Z,28.64
2019-03-17T09:11:56.687Z,27.54
2019-03-17T09:12:56.677Z,27.14
2019-03-17T09:13:56.668Z,27.34
2019-03-17T09:14:56.657Z,27.74
2019-03-17T09:15:56.700Z,28.53
2019-03-17T09:16:56.638Z,27.33
2019-03-17T09:17:56.624Z,27.33
2019-03-17T09:18:56.614Z,28.33
2019-03-17T09:19:56.601Z,28.13
2019-03-17T09:20:56.590Z,28.13
2019-03-17T09:21:56.831Z,27.63
2019-03-17T09:22:56.573Z,27.42
2019-03-17T09:23:56.566Z,26.93
2019-03-17T09:24:56.551Z,27.23
2019-03-17T09:25:56.542Z,26.34
2019-03-17T09:26:56.531Z,26.44
2019-03-17T09:27:56.571Z,27.14
2019-03-17T09:28:56.513Z,24.24
2019-03-17T09:29:56.508Z,27.53
2019-03-17T09:30:56.488Z,25.73
2019-03-17T09:31:56.482Z,24.82
2019-03-17T09:32:56.468Z,25.03
2019-03-17T09:33:56.507Z,24.21
2019-03-17T09:34:56.464Z,23.41
2019-03-17T09:35:56.443Z,24.51
2019-03-17T09:36:56.430Z,27.42
2019-03-17T09:37:56.414Z,24.31
2019-03-17T09:38:56.414Z,24.81
2019-03-17T09:39:56.448Z,24.20
2019-03-17T09:40:56.387Z,23.80
2019-03-17T09:41:56.376Z,26.91
2019-03-17T09:42:56.366Z,26.00
2019-03-17T09:43:56.358Z,27.11
2019-03-17T09:44:56.493Z,26.01
2019-03-17T09:45:56.331Z,25.92
2019-03-17T09:46:56.332Z,26.23
2019-03-17T09:47:56.315Z,26.33
2019-03-17T09:48:56.304Z,25.43
2019-03-17T09:49:56.296Z,26.03
2019-03-17T09:50:56.336Z,25.03
2019-03-17T09:51:56.271Z,24.62
2019-03-17T09:52:56.267Z,26.03
2019-03-17T09:53:56.255Z,26.31
2019-03-17T09:54:56.240Z,25.72
2019-03-17T09:55:56.233Z,25.70
2019-03-17T09:56:56.275Z,25.31
2019-03-17T09:57:56.212Z,25.31
2019-03-17T09:58:56.199Z,26.51
2019-03-17T09:59:56.192Z,26.80
2019-03-17T10:00:56.181Z,27.80
2019-03-17T10:01:56.171Z,26.00
2019-03-17T10:02:56.211Z,26.20
2019-03-17T10:03:56.150Z,26.70
2019-03-17T10:04:56.138Z,26.70
2019-03-17T10:05:56.131Z,27.61
2019-03-17T10:06:56.119Z,26.92
2019-03-17T10:07:56.107Z,27.81
2019-03-17T10:09:00.379Z,27.70
2019-03-17T10:09:56.087Z,27.22
2019-03-17T10:10:56.078Z,27.22
2019-03-17T10:11:56.069Z,26.72
2019-03-17T10:12:56.062Z,26.72
2019-03-17T10:13:56.194Z,27.72
2019-03-17T10:14:56.037Z,27.11
2019-03-17T10:15:56.022Z,27.22
2019-03-17T10:16:56.018Z,27.93
2019-03-17T10:17:56.006Z,28.13
2019-03-17T10:18:55.996Z,27.33
2019-03-17T10:19:56.035Z,27.43
2019-03-17T10:20:55.975Z,27.83
2019-03-17T10:21:55.963Z,30.82
2019-03-17T10:22:55.953Z,28.72
2019-03-17T10:23:55.944Z,31.20
2019-03-17T10:24:55.933Z,27.41
2019-03-17T10:25:55.974Z,27.70
2019-03-17T10:26:55.910Z,27.72
2019-03-17T10:27:55.903Z,26.61
2019-03-17T10:28:55.889Z,27.53
2019-03-17T10:29:55.876Z,26.83
2019-03-17T10:30:55.968Z,26.93
2019-03-17T10:31:55.857Z,27.03
2019-03-17T10:32:55.844Z,27.02
2019-03-17T10:33:55.839Z,26.72
2019-03-17T10:34:55.822Z,26.72
2019-03-17T10:35:55.813Z,26.31
2019-03-17T10:36:55.910Z,27.02
2019-03-17T10:37:55.795Z,26.81
2019-03-17T10:38:55.785Z,25.92
2019-03-17T10:39:55.775Z,25.21
2019-03-17T10:40:55.762Z,25.92
2019-03-17T10:41:56.162Z,26.13
2019-03-17T10:42:55.744Z,26.13
2019-03-17T10:43:55.737Z,26.22
2019-03-17T10:44:55.721Z,25.31
2019-03-17T10:45:55.708Z,25.31
2019-03-17T10:46:55.708Z,25.42
2019-03-17T10:47:55.745Z,25.81
2019-03-17T10:48:55.679Z,26.11
2019-03-17T10:49:55.669Z,26.11
2019-03-17T10:50:55.654Z,26.31
2019-03-17T10:51:55.645Z,25.51
2019-03-17T10:52:55.651Z,25.32
2019-03-17T10:53:55.677Z,25.92
2019-03-17T10:54:55.616Z,25.63
2019-03-17T10:55:55.611Z,25.23
2019-03-17T10:56:55.597Z,24.93
2019-03-17T10:57:55.586Z,25.63
2019-03-17T10:58:55.577Z,26.23
2019-03-17T10:59:55.718Z,26.03
2019-03-17T11:00:55.555Z,26.43
2019-03-17T11:01:55.546Z,26.92
2019-03-17T11:02:55.533Z,26.92
2019-03-17T11:03:55.523Z,27.22
2019-03-17T11:04:55.515Z,26.81
2019-03-17T11:05:55.552Z,27.22
2019-03-17T11:06:55.491Z,27.33
2019-03-17T11:07:55.479Z,26.63
2019-03-17T11:08:55.476Z,27.83
2019-03-17T11:09:55.462Z,27.73
2019-03-17T11:10:55.551Z,27.03
2019-03-17T11:11:55.442Z,27.61
2019-03-17T11:12:55.433Z,27.53
2019-03-17T11:13:55.418Z,26.73
2019-03-17T11:14:55.410Z,26.53
2019-03-17T11:15:55.546Z,26.53
2019-03-17T11:16:55.384Z,26.13
2019-03-17T11:17:55.379Z,26.13
2019-03-17T11:18:55.381Z,27.31
2019-03-17T11:19:55.360Z,27.11
2019-03-17T11:20:55.348Z,28.22
2019-03-17T11:21:55.434Z,27.93
2019-03-17T11:22:55.322Z,28.33
2019-03-17T11:23:55.313Z,29.53
2019-03-17T11:24:55.304Z,28.43
2019-03-17T11:25:55.291Z,29.05
2019-03-17T11:26:55.822Z,28.94
2019-03-17T11:27:55.318Z,29.53
2019-03-17T11:28:55.264Z,28.14
2019-03-17T11:29:55.249Z,28.04
2019-03-17T11:30:55.242Z,29.24
2019-03-17T11:31:55.228Z,29.74
2019-03-17T11:32:55.219Z,27.86
2019-03-17T11:33:55.357Z,29.36
2019-03-17T11:34:55.201Z,29.66
2019-03-17T11:35:55.182Z,30.06
2019-03-17T11:36:55.180Z,29.96
2019-03-17T11:37:55.166Z,29.46
2019-03-17T11:38:55.158Z,30.56
2019-03-17T11:39:55.250Z,30.26
2019-03-17T11:40:55.136Z,28.46
2019-03-17T11:41:55.124Z,28.76
2019-03-17T11:42:55.114Z,29.36
2019-03-17T11:43:55.102Z,29.66
2019-03-17T11:44:55.142Z,29.66
2019-03-17T11:45:55.090Z,29.36
2019-03-17T11:46:55.075Z,29.46
2019-03-17T11:47:55.063Z,29.46
2019-03-17T11:48:55.052Z,29.76
2019-03-17T11:49:55.044Z,30.86
2019-03-17T11:50:55.132Z,30.26
2019-03-17T11:51:55.020Z,31.56
2019-03-17T11:52:55.020Z,31.56
2019-03-17T11:53:54.999Z,31.17
2019-03-17T11:54:54.990Z,31.88
2019-03-17T11:55:54.974Z,31.88
2019-03-17T11:57:55.007Z,31.48
2019-03-17T11:58:54.947Z,32.58
2019-03-17T11:59:54.939Z,32.58
2019-03-17T12:00:54.926Z,31.68
2019-03-17T12:01:54.914Z,32.48
2019-03-17T12:02:54.922Z,31.68
2019-03-17T12:03:55.012Z,32.20
2019-03-17T12:04:54.887Z,32.60
2019-03-17T12:05:54.877Z,32.29
2019-03-17T12:06:54.866Z,32.29
2019-03-17T12:07:54.857Z,32.60
2019-03-17T12:08:54.844Z,32.60
2019-03-17T12:09:54.889Z,32.21
2019-03-17T12:10:54.831Z,32.29
2019-03-17T12:11:54.811Z,32.61
2019-03-17T12:12:54.803Z,32.31
2019-03-17T12:13:54.793Z,32.72
2019-03-17T12:14:54.782Z,32.81
2019-03-17T12:15:54.825Z,32.41
2019-03-17T12:16:54.760Z,32.72
2019-03-17T12:17:54.753Z,33.22
2019-03-17T12:18:54.742Z,33.53
2019-03-17T12:19:54.727Z,33.53
2019-03-17T12:20:54.717Z,33.53
2019-03-17T12:21:54.764Z,33.63
2019-03-17T12:22:54.695Z,33.13
2019-03-17T12:23:54.686Z,33.43
2019-03-17T12:24:54.680Z,32.83
2019-03-17T12:25:54.672Z,34.03
2019-03-17T12:26:54.656Z,34.33
2019-03-17T12:27:54.697Z,34.44
2019-03-17T12:28:54.636Z,34.75
2019-03-17T12:29:54.625Z,34.15
2019-03-17T12:30:54.616Z,34.55
2019-03-17T12:31:54.606Z,34.75
2019-03-17T12:32:54.592Z,34.37
2019-03-17T12:33:54.690Z,34.57
2019-03-17T12:34:54.575Z,34.55
2019-03-17T12:35:54.559Z,34.17
2019-03-17T12:36:54.549Z,34.47
2019-03-17T12:37:54.539Z,34.47
2019-03-17T12:38:54.529Z,34.67
2019-03-17T12:40:02.460Z,34.47
2019-03-17T12:41:19.324Z,34.97
2019-03-17T12:42:19.313Z,35.57
2019-03-17T12:43:19.300Z,35.47
2019-03-17T12:44:19.289Z,35.09
2019-03-17T12:45:19.327Z,35.09
2019-03-17T12:46:19.267Z,35.49
2019-03-17T12:47:19.261Z,35.19
2019-03-17T12:48:19.249Z,35.19
2019-03-17T12:49:19.241Z,35.49
2019-03-17T12:50:19.224Z,35.49
2019-03-17T12:51:19.268Z,35.19
2019-03-17T12:52:19.202Z,35.49
2019-03-17T12:53:19.196Z,35.51
2019-03-17T12:54:19.187Z,35.11
2019-03-17T12:55:19.183Z,35.63